Bookmark and Share
Track history (hours):
 

Raven's Dance

More information available from US FCC via Universal Licensing System and Coast Guard Vessel Documentation Center.

Last reported at 2013-Jun-11 12:18 UTC. Time now 2014-Apr-16 13:47 UTC.
Position N 54°15' W 130°23'.
Warning: this ship's position is months out of date.

Length 14 m.

Type: Sailing vessel. MMSI: 367482370.

NotesDate/timePositionNaut miles runAvg speedWind from/ knotsBaromVisibWave heightAir tempDewpointWater temp
2013-Jun-11 12:18N 54°15' W 130°23'0 0.0
2013-Jun-11 11:33N 54°15' W 130°23'0 0.0
2013-Jun-11 10:33N 54°15' W 130°23'0 0.0
2013-Jun-11 09:27N 54°15' W 130°23'0 0.0
2013-Jun-11 06:33N 54°15' W 130°23'  
2013-Jun-04 18:19N 49°29' W 124°23'7 7.5
2013-Jun-04 17:25N 49°24' W 124°15'6 6.6
2013-Jun-04 16:33N 49°21' W 124°08'6 6.0
2013-Jun-04 15:33N 49°17' W 124°01'6 6.0
2013-Jun-04 14:33N 49°12' W 123°55'2 1.4
2013-Jun-04 13:27N 49°11' W 123°56'0 0.0
2013-Jun-04 12:31N 49°11' W 123°56'0 0.0
2013-Jun-04 11:33N 49°11' W 123°56'0 0.0
2013-Jun-04 10:31N 49°11' W 123°56'0 0.0
2013-Jun-04 09:29N 49°11' W 123°56'0 0.0
2013-Jun-04 08:33N 49°11' W 123°56'0 0.0
2013-Jun-04 07:31N 49°11' W 123°56'0 0.0
2013-Jun-04 06:23N 49°11' W 123°56'0 0.0
2013-Jun-04 05:27N 49°11' W 123°56'0 0.0
2013-Jun-04 04:14N 49°11' W 123°56'0 0.0
2013-Jun-04 03:23N 49°11' W 123°56'0 0.0
2013-Jun-04 02:31N 49°11' W 123°56'0 0.0
2013-Jun-04 01:21N 49°11' W 123°56'6 3.2
2013-Jun-03 23:31N 49°12' W 123°47'6 6.4
2013-Jun-03 22:33N 49°08' W 123°39'8 7.2
2013-Jun-03 21:29N 49°01' W 123°35'7 6.8
2013-Jun-03 20:27N 48°55' W 123°30'7 7.5
2013-Jun-03 19:33N 48°49' W 123°24'12 3.0
2013-Jun-03 15:22N 48°43' W 123°08'62 2.8
2013-Jun-02 17:20N 47°46' W 122°28'4 5.7
2013-Jun-02 16:33N 47°42' W 122°28'6 6.2
2013-Jun-02 15:33N 47°36' W 122°28'5 5.5
2013-Jun-02 14:33N 47°34' W 122°36'2 2.3
2013-Jun-02 13:33N 47°32' W 122°39'0 0.0
2013-Jun-02 12:33N 47°32' W 122°39'0 0.0
2013-Jun-02 11:33N 47°32' W 122°39'0 0.0
2013-Jun-02 10:33N 47°32' W 122°39'0 0.0
2013-Jun-02 09:33N 47°32' W 122°39'0 0.0
2013-Jun-02 08:33N 47°32' W 122°39'0 0.0
2013-Jun-02 07:33N 47°32' W 122°39'0 0.0
2013-Jun-02 06:33N 47°32' W 122°39'0 0.0
2013-Jun-02 05:33N 47°32' W 122°39'0 0.0
2013-Jun-02 04:33N 47°32' W 122°39'0 0.0
2013-Jun-02 03:33N 47°32' W 122°39'0 0.0
2013-Jun-02 02:33N 47°32' W 122°39'0 0.0
2013-Jun-02 01:33N 47°32' W 122°39'0 0.0
2013-Jun-02 00:33N 47°32' W 122°39'0 0.0
2013-Jun-01 23:33N 47°32' W 122°39'0 0.0
2013-Jun-01 22:33N 47°32' W 122°39'0 0.0
2013-Jun-01 21:30N 47°32' W 122°39'0 0.0
2013-Jun-01 20:33N 47°32' W 122°39'0 0.0
2013-Jun-01 19:33N 47°32' W 122°39'0 0.0
2013-Jun-01 18:33N 47°32' W 122°39'1 0.8
2013-Jun-01 17:33N 47°33' W 122°38'6 6.1
2013-Jun-01 16:34N 47°39' W 122°37'2 2.0
2013-Jun-01 15:33N 47°37' W 122°35'5 5.2
2013-Jun-01 14:33N 47°32' W 122°39'0 0.0
2013-Jun-01 13:33N 47°32' W 122°39'0 0.0
2013-Jun-01 12:33N 47°32' W 122°39'  

Dump ship's entire track history

sailing weather and tide predictions

Raven's Dance — WDF7230 — position and weather